Columbia, North Carolina
Current Conditions -  °F | °C
As of 8:35 AM on Thursday 23 Oct 2014 (Local Time) from KEDE Reporting Station
Overcast Overcast  
Wind Chill: 51°   Ceiling: 4100
Heat Index: 51°   Visibility: 10mi
Dew Point: 44°   Wind: 14mph
Humidity: 77%   Direction: 310°NW
Pressure: 29.95"   Gusts: 18mph
Location:  35.92°N, 76.25°W
Report Text: KEDE 231235Z AUTO 31012G16KT 10SM OVC041 11/07 A2995 RMK AO2 T01050067
Loading
Personal Weather Stations






























Interactive Weather Map New forecast layout! Learn more

10-Day Weather Forecast

Advertisements
Track Severe Weather on mobile